sensor_id;sensor_type;location;lat;lon;timestamp;P1;durP1;ratioP1;P2;durP2;ratioP2
67187;SDS011;54117;53.532;49.426;2022-10-31T00:01:09;3.60;;;0.70;;
67187;SDS011;54117;53.532;49.426;2022-10-31T00:03:39;0.70;;;0.60;;
67187;SDS011;54117;53.532;49.426;2022-10-31T00:06:06;1.70;;;0.73;;
67187;SDS011;54117;53.532;49.426;2022-10-31T00:08:32;3.05;;;0.60;;
67187;SDS011;54117;53.532;49.426;2022-10-31T00:10:59;0.73;;;0.45;;
67187;SDS011;54117;53.532;49.426;2022-10-31T00:13:25;2.72;;;0.40;;
67187;SDS011;54117;53.532;49.426;2022-10-31T00:15:52;0.80;;;0.80;;
67187;SDS011;54117;53.532;49.426;2022-10-31T00:18:18;1.27;;;0.80;;
67187;SDS011;54117;53.532;49.426;2022-10-31T00:20:45;0.57;;;0.45;;
67187;SDS011;54117;53.532;49.426;2022-10-31T00:23:11;1.00;;;0.55;;
67187;SDS011;54117;53.532;49.426;2022-10-31T00:25:39;0.60;;;0.60;;
67187;SDS011;54117;53.532;49.426;2022-10-31T00:28:06;1.52;;;0.50;;
67187;SDS011;54117;53.532;49.426;2022-10-31T00:30:36;0.90;;;0.55;;
67187;SDS011;54117;53.532;49.426;2022-10-31T00:33:05;2.30;;;0.50;;
67187;SDS011;54117;53.532;49.426;2022-10-31T00:35:32;3.67;;;0.52;;
67187;SDS011;54117;53.532;49.426;2022-10-31T00:37:58;0.73;;;0.50;;
67187;SDS011;54117;53.532;49.426;2022-10-31T00:40:25;0.82;;;0.25;;
67187;SDS011;54117;53.532;49.426;2022-10-31T00:42:51;2.53;;;0.68;;
67187;SDS011;54117;53.532;49.426;2022-10-31T00:45:17;0.20;;;0.20;;
67187;SDS011;54117;53.532;49.426;2022-10-31T00:47:44;0.40;;;0.20;;
67187;SDS011;54117;53.532;49.426;2022-10-31T00:50:10;0.52;;;0.22;;
67187;SDS011;54117;53.532;49.426;2022-10-31T00:52:37;1.88;;;0.30;;
67187;SDS011;54117;53.532;49.426;2022-10-31T00:55:03;0.77;;;0.10;;
67187;SDS011;54117;53.532;49.426;2022-10-31T00:57:30;0.20;;;0.20;;
67187;SDS011;54117;53.532;49.426;2022-10-31T00:59:56;1.70;;;0.57;;
67187;SDS011;54117;53.532;49.426;2022-10-31T01:02:22;0.40;;;0.40;;
67187;SDS011;54117;53.532;49.426;2022-10-31T01:04:49;0.60;;;0.40;;
67187;SDS011;54117;53.532;49.426;2022-10-31T01:07:15;1.73;;;0.43;;
67187;SDS011;54117;53.532;49.426;2022-10-31T01:09:41;0.90;;;0.20;;
67187;SDS011;54117;53.532;49.426;2022-10-31T01:12:08;0.25;;;0.25;;
67187;SDS011;54117;53.532;49.426;2022-10-31T01:14:34;2.28;;;0.50;;
67187;SDS011;54117;53.532;49.426;2022-10-31T01:17:00;4.72;;;3.25;;
67187;SDS011;54117;53.532;49.426;2022-10-31T01:19:30;0.85;;;0.50;;
67187;SDS011;54117;53.532;49.426;2022-10-31T01:21:56;0.77;;;0.60;;
67187;SDS011;54117;53.532;49.426;2022-10-31T01:24:23;3.30;;;0.90;;
67187;SDS011;54117;53.532;49.426;2022-10-31T01:26:49;2.58;;;0.68;;
67187;SDS011;54117;53.532;49.426;2022-10-31T01:29:15;1.13;;;0.60;;
67187;SDS011;54117;53.532;49.426;2022-10-31T01:31:42;1.67;;;0.50;;
67187;SDS011;54117;53.532;49.426;2022-10-31T01:34:10;0.40;;;0.20;;
67187;SDS011;54117;53.532;49.426;2022-10-31T01:57:46;1.08;;;0.43;;
67187;SDS011;54117;53.532;49.426;2022-10-31T02:00:16;1.50;;;0.65;;
67187;SDS011;54117;53.532;49.426;2022-10-31T02:02:42;1.85;;;0.50;;
67187;SDS011;54117;53.532;49.426;2022-10-31T02:05:16;3.88;;;0.40;;
67187;SDS011;54117;53.532;49.426;2022-10-31T02:07:48;0.47;;;0.20;;
67187;SDS011;54117;53.532;49.426;2022-10-31T02:10:36;0.45;;;0.20;;
67187;SDS011;54117;53.532;49.426;2022-10-31T02:13:03;1.33;;;0.20;;
67187;SDS011;54117;53.532;49.426;2022-10-31T02:15:32;0.50;;;0.40;;
67187;SDS011;54117;53.532;49.426;2022-10-31T02:18:00;1.27;;;0.35;;
67187;SDS011;54117;53.532;49.426;2022-10-31T02:20:42;0.55;;;0.25;;
67187;SDS011;54117;53.532;49.426;2022-10-31T02:23:30;0.95;;;0.45;;
67187;SDS011;54117;53.532;49.426;2022-10-31T02:29:02;1.65;;;0.40;;
67187;SDS011;54117;53.532;49.426;2022-10-31T02:40:17;5.63;;;0.32;;
67187;SDS011;54117;53.532;49.426;2022-10-31T02:43:09;0.65;;;0.43;;
67187;SDS011;54117;53.532;49.426;2022-10-31T02:45:52;1.17;;;0.30;;
67187;SDS011;54117;53.532;49.426;2022-10-31T02:51:09;2.63;;;0.30;;
67187;SDS011;54117;53.532;49.426;2022-10-31T02:53:40;0.40;;;0.38;;
67187;SDS011;54117;53.532;49.426;2022-10-31T02:56:13;1.70;;;0.20;;
67187;SDS011;54117;53.532;49.426;2022-10-31T02:58:42;0.30;;;0.30;;
67187;SDS011;54117;53.532;49.426;2022-10-31T04:03:03;1.80;;;1.35;;
67187;SDS011;54117;53.532;49.426;2022-10-31T04:05:41;1.95;;;1.08;;
67187;SDS011;54117;53.532;49.426;2022-10-31T04:08:11;2.15;;;0.30;;
67187;SDS011;54117;53.532;49.426;2022-10-31T04:10:42;0.60;;;0.55;;
67187;SDS011;54117;53.532;49.426;2022-10-31T04:13:13;0.98;;;0.57;;
67187;SDS011;54117;53.532;49.426;2022-10-31T04:15:43;2.78;;;0.60;;
67187;SDS011;54117;53.532;49.426;2022-10-31T05:30:27;4.10;;;0.75;;
67187;SDS011;54117;53.532;49.426;2022-10-31T05:32:56;1.63;;;0.75;;
67187;SDS011;54117;53.532;49.426;2022-10-31T05:35:25;2.72;;;0.73;;
67187;SDS011;54117;53.532;49.426;2022-10-31T05:37:53;2.97;;;1.05;;
67187;SDS011;54117;53.532;49.426;2022-10-31T05:40:20;4.00;;;1.00;;
67187;SDS011;54117;53.532;49.426;2022-10-31T05:42:50;0.80;;;0.80;;
67187;SDS011;54117;53.532;49.426;2022-10-31T05:45:19;1.52;;;1.25;;
67187;SDS011;54117;53.532;49.426;2022-10-31T05:47:56;5.53;;;2.00;;
67187;SDS011;54117;53.532;49.426;2022-10-31T05:50:25;6.07;;;3.38;;
67187;SDS011;54117;53.532;49.426;2022-10-31T05:53:02;1.38;;;1.10;;
67187;SDS011;54117;53.532;49.426;2022-10-31T05:55:34;4.07;;;1.30;;
67187;SDS011;54117;53.532;49.426;2022-10-31T06:00:44;2.05;;;0.50;;
67187;SDS011;54117;53.532;49.426;2022-10-31T06:03:31;0.75;;;0.45;;
67187;SDS011;54117;53.532;49.426;2022-10-31T06:05:58;1.77;;;0.85;;
67187;SDS011;54117;53.532;49.426;2022-10-31T06:08:45;1.08;;;0.70;;
67187;SDS011;54117;53.532;49.426;2022-10-31T06:11:12;1.83;;;0.50;;
67187;SDS011;54117;53.532;49.426;2022-10-31T06:13:57;1.63;;;0.47;;
67187;SDS011;54117;53.532;49.426;2022-10-31T06:16:24;0.85;;;0.70;;
67187;SDS011;54117;53.532;49.426;2022-10-31T06:18:59;1.30;;;0.60;;
67187;SDS011;54117;53.532;49.426;2022-10-31T06:24:37;7.40;;;3.08;;
67187;SDS011;54117;53.532;49.426;2022-10-31T06:27:04;3.67;;;1.70;;
67187;SDS011;54117;53.532;49.426;2022-10-31T06:29:50;2.95;;;1.65;;
67187;SDS011;54117;53.532;49.426;2022-10-31T06:32:16;2.38;;;1.50;;
67187;SDS011;54117;53.532;49.426;2022-10-31T06:37:32;3.50;;;1.48;;
67187;SDS011;54117;53.532;49.426;2022-10-31T06:43:17;7.07;;;1.92;;
67187;SDS011;54117;53.532;49.426;2022-10-31T06:45:48;2.65;;;0.90;;
67187;SDS011;54117;53.532;49.426;2022-10-31T06:48:14;3.80;;;0.82;;
67187;SDS011;54117;53.532;49.426;2022-10-31T06:53:45;2.72;;;0.90;;
67187;SDS011;54117;53.532;49.426;2022-10-31T06:56:12;3.42;;;0.90;;
67187;SDS011;54117;53.532;49.426;2022-10-31T06:58:38;1.15;;;0.80;;
67187;SDS011;54117;53.532;49.426;2022-10-31T07:04:09;1.92;;;1.25;;
67187;SDS011;54117;53.532;49.426;2022-10-31T07:06:54;2.60;;;1.35;;
67187;SDS011;54117;53.532;49.426;2022-10-31T07:12:25;0.95;;;0.73;;
67187;SDS011;54117;53.532;49.426;2022-10-31T07:17:37;2.50;;;0.90;;
67187;SDS011;54117;53.532;49.426;2022-10-31T07:20:04;1.73;;;0.90;;
67187;SDS011;54117;53.532;49.426;2022-10-31T07:22:35;1.55;;;0.68;;
67187;SDS011;54117;53.532;49.426;2022-10-31T07:25:03;2.83;;;1.17;;
67187;SDS011;54117;53.532;49.426;2022-10-31T07:27:38;3.28;;;1.25;;
67187;SDS011;54117;53.532;49.426;2022-10-31T07:30:23;1.27;;;1.17;;
67187;SDS011;54117;53.532;49.426;2022-10-31T07:35:35;1.40;;;0.70;;
67187;SDS011;54117;53.532;49.426;2022-10-31T07:38:09;1.23;;;0.95;;
67187;SDS011;54117;53.532;49.426;2022-10-31T07:40:54;3.25;;;0.70;;
67187;SDS011;54117;53.532;49.426;2022-10-31T07:46:15;1.42;;;0.60;;
67187;SDS011;54117;53.532;49.426;2022-10-31T07:48:41;0.90;;;0.63;;
67187;SDS011;54117;53.532;49.426;2022-10-31T07:54:12;2.60;;;1.35;;
67187;SDS011;54117;53.532;49.426;2022-10-31T07:59:23;2.88;;;1.40;;
67187;SDS011;54117;53.532;49.426;2022-10-31T08:01:51;4.78;;;1.30;;
67187;SDS011;54117;53.532;49.426;2022-10-31T08:04:36;3.53;;;1.08;;
67187;SDS011;54117;53.532;49.426;2022-10-31T08:07:02;4.20;;;1.08;;
67187;SDS011;54117;53.532;49.426;2022-10-31T08:09:29;1.75;;;0.70;;
67187;SDS011;54117;53.532;49.426;2022-10-31T08:11:55;0.73;;;0.63;;
67187;SDS011;54117;53.532;49.426;2022-10-31T08:14:41;0.40;;;0.40;;
67187;SDS011;54117;53.532;49.426;2022-10-31T08:17:08;2.45;;;0.77;;
67187;SDS011;54117;53.532;49.426;2022-10-31T08:19:53;3.40;;;2.30;;
67187;SDS011;54117;53.532;49.426;2022-10-31T08:22:19;4.35;;;3.55;;
67187;SDS011;54117;53.532;49.426;2022-10-31T08:25:05;2.38;;;1.88;;
67187;SDS011;54117;53.532;49.426;2022-10-31T08:27:55;8.43;;;5.60;;
67187;SDS011;54117;53.532;49.426;2022-10-31T08:30:24;10.48;;;7.80;;
67187;SDS011;54117;53.532;49.426;2022-10-31T08:33:10;37.38;;;22.35;;
67187;SDS011;54117;53.532;49.426;2022-10-31T08:35:38;16.75;;;10.32;;
67187;SDS011;54117;53.532;49.426;2022-10-31T08:38:05;9.88;;;6.78;;
67187;SDS011;54117;53.532;49.426;2022-10-31T08:40:34;14.98;;;4.32;;
67187;SDS011;54117;53.532;49.426;2022-10-31T08:43:19;2.85;;;1.90;;
67187;SDS011;54117;53.532;49.426;2022-10-31T08:45:49;4.22;;;3.47;;
67187;SDS011;54117;53.532;49.426;2022-10-31T08:48:35;4.97;;;3.80;;
67187;SDS011;54117;53.532;49.426;2022-10-31T08:51:01;25.10;;;14.95;;
67187;SDS011;54117;53.532;49.426;2022-10-31T08:53:28;11.85;;;6.57;;
67187;SDS011;54117;53.532;49.426;2022-10-31T08:55:55;2.72;;;2.05;;
67187;SDS011;54117;53.532;49.426;2022-10-31T08:58:22;1.70;;;1.23;;
67187;SDS011;54117;53.532;49.426;2022-10-31T09:00:50;3.33;;;1.15;;
67187;SDS011;54117;53.532;49.426;2022-10-31T09:03:19;3.03;;;1.33;;
67187;SDS011;54117;53.532;49.426;2022-10-31T09:05:54;3.17;;;1.50;;
67187;SDS011;54117;53.532;49.426;2022-10-31T09:08:22;3.05;;;1.55;;
67187;SDS011;54117;53.532;49.426;2022-10-31T09:10:48;2.65;;;1.55;;
67187;SDS011;54117;53.532;49.426;2022-10-31T09:13:16;8.00;;;4.03;;
67187;SDS011;54117;53.532;49.426;2022-10-31T09:15:45;2.75;;;1.42;;
67187;SDS011;54117;53.532;49.426;2022-10-31T09:18:14;1.48;;;0.73;;
67187;SDS011;54117;53.532;49.426;2022-10-31T09:20:43;5.07;;;1.08;;
67187;SDS011;54117;53.532;49.426;2022-10-31T09:23:12;3.65;;;0.95;;
67187;SDS011;54117;53.532;49.426;2022-10-31T09:25:40;6.13;;;1.40;;
67187;SDS011;54117;53.532;49.426;2022-10-31T09:28:09;2.08;;;0.55;;
67187;SDS011;54117;53.532;49.426;2022-10-31T09:30:37;2.50;;;0.50;;
67187;SDS011;54117;53.532;49.426;2022-10-31T09:33:23;0.70;;;0.50;;
67187;SDS011;54117;53.532;49.426;2022-10-31T09:35:50;3.58;;;1.38;;
67187;SDS011;54117;53.532;49.426;2022-10-31T09:38:19;1.92;;;1.00;;
67187;SDS011;54117;53.532;49.426;2022-10-31T09:46:53;6.13;;;1.05;;
67187;SDS011;54117;53.532;49.426;2022-10-31T10:19:50;1.15;;;0.95;;
67187;SDS011;54117;53.532;49.426;2022-10-31T10:30:37;4.75;;;1.35;;
67187;SDS011;54117;53.532;49.426;2022-10-31T10:33:13;6.55;;;2.60;;
67187;SDS011;54117;53.532;49.426;2022-10-31T10:35:45;8.48;;;2.70;;
67187;SDS011;54117;53.532;49.426;2022-10-31T10:38:36;2.97;;;1.50;;
67187;SDS011;54117;53.532;49.426;2022-10-31T10:41:18;4.32;;;2.20;;
67187;SDS011;54117;53.532;49.426;2022-10-31T10:43:52;3.33;;;1.45;;
67187;SDS011;54117;53.532;49.426;2022-10-31T10:46:30;0.90;;;0.90;;
67187;SDS011;54117;53.532;49.426;2022-10-31T10:49:41;5.60;;;1.88;;
67187;SDS011;54117;53.532;49.426;2022-10-31T10:52:40;3.13;;;1.83;;
67187;SDS011;54117;53.532;49.426;2022-10-31T10:55:17;2.50;;;1.40;;
67187;SDS011;54117;53.532;49.426;2022-10-31T10:58:07;5.85;;;2.00;;
67187;SDS011;54117;53.532;49.426;2022-10-31T11:00:41;2.10;;;0.85;;
67187;SDS011;54117;53.532;49.426;2022-10-31T11:03:16;4.15;;;0.82;;
67187;SDS011;54117;53.532;49.426;2022-10-31T11:05:46;2.70;;;0.80;;
67187;SDS011;54117;53.532;49.426;2022-10-31T11:11:13;3.83;;;0.73;;
67187;SDS011;54117;53.532;49.426;2022-10-31T11:14:02;4.20;;;0.70;;
67187;SDS011;54117;53.532;49.426;2022-10-31T11:16:36;1.50;;;0.50;;
67187;SDS011;54117;53.532;49.426;2022-10-31T11:19:05;1.38;;;0.80;;
67187;SDS011;54117;53.532;49.426;2022-10-31T11:21:40;2.25;;;1.27;;
67187;SDS011;54117;53.532;49.426;2022-10-31T11:24:13;3.28;;;1.63;;
67187;SDS011;54117;53.532;49.426;2022-10-31T11:26:46;9.73;;;2.22;;
67187;SDS011;54117;53.532;49.426;2022-10-31T11:29:21;0.77;;;0.77;;
67187;SDS011;54117;53.532;49.426;2022-10-31T11:31:54;1.67;;;0.60;;
67187;SDS011;54117;53.532;49.426;2022-10-31T11:36:53;0.47;;;0.47;;
67187;SDS011;54117;53.532;49.426;2022-10-31T11:39:23;2.35;;;0.50;;
67187;SDS011;54117;53.532;49.426;2022-10-31T11:41:51;4.93;;;0.60;;
67187;SDS011;54117;53.532;49.426;2022-10-31T11:44:24;1.65;;;0.50;;
67187;SDS011;54117;53.532;49.426;2022-10-31T11:46:56;0.88;;;0.40;;
67187;SDS011;54117;53.532;49.426;2022-10-31T11:49:36;2.08;;;0.60;;
67187;SDS011;54117;53.532;49.426;2022-10-31T11:52:07;1.23;;;0.38;;
67187;SDS011;54117;53.532;49.426;2022-10-31T11:57:50;6.10;;;0.68;;
67187;SDS011;54117;53.532;49.426;2022-10-31T12:00:30;3.17;;;0.60;;
67187;SDS011;54117;53.532;49.426;2022-10-31T12:06:09;2.40;;;1.08;;
67187;SDS011;54117;53.532;49.426;2022-10-31T12:08:44;0.95;;;0.45;;
67187;SDS011;54117;53.532;49.426;2022-10-31T12:14:01;1.73;;;0.80;;
67187;SDS011;54117;53.532;49.426;2022-10-31T12:16:39;2.80;;;0.75;;
67187;SDS011;54117;53.532;49.426;2022-10-31T12:19:34;4.88;;;1.83;;
67187;SDS011;54117;53.532;49.426;2022-10-31T12:25:16;1.63;;;0.90;;
67187;SDS011;54117;53.532;49.426;2022-10-31T12:33:40;1.25;;;1.00;;
67187;SDS011;54117;53.532;49.426;2022-10-31T12:39:51;2.42;;;1.00;;
67187;SDS011;54117;53.532;49.426;2022-10-31T12:48:00;8.35;;;1.80;;
67187;SDS011;54117;53.532;49.426;2022-10-31T12:50:45;2.63;;;1.38;;
67187;SDS011;54117;53.532;49.426;2022-10-31T12:53:27;2.97;;;1.70;;
67187;SDS011;54117;53.532;49.426;2022-10-31T12:59:01;7.18;;;1.20;;
67187;SDS011;54117;53.532;49.426;2022-10-31T13:01:41;5.75;;;1.40;;
67187;SDS011;54117;53.532;49.426;2022-10-31T13:06:49;3.08;;;2.05;;
67187;SDS011;54117;53.532;49.426;2022-10-31T13:09:25;6.60;;;1.95;;
67187;SDS011;54117;53.532;49.426;2022-10-31T13:12:26;3.85;;;2.00;;
67187;SDS011;54117;53.532;49.426;2022-10-31T13:18:29;9.73;;;2.15;;
67187;SDS011;54117;53.532;49.426;2022-10-31T13:21:26;5.35;;;2.63;;
67187;SDS011;54117;53.532;49.426;2022-10-31T13:24:04;12.00;;;1.90;;
67187;SDS011;54117;53.532;49.426;2022-10-31T13:26:53;9.77;;;2.00;;
67187;SDS011;54117;53.532;49.426;2022-10-31T13:30:39;1.85;;;1.10;;
67187;SDS011;54117;53.532;49.426;2022-10-31T13:35:43;5.82;;;1.58;;
67187;SDS011;54117;53.532;49.426;2022-10-31T13:44:26;4.22;;;1.30;;
67187;SDS011;54117;53.532;49.426;2022-10-31T13:47:00;3.25;;;1.17;;
67187;SDS011;54117;53.532;49.426;2022-10-31T13:49:45;3.28;;;1.13;;
67187;SDS011;54117;53.532;49.426;2022-10-31T13:52:24;8.35;;;2.30;;
67187;SDS011;54117;53.532;49.426;2022-10-31T13:54:55;5.95;;;1.20;;
67187;SDS011;54117;53.532;49.426;2022-10-31T13:57:38;2.50;;;1.92;;
67187;SDS011;54117;53.532;49.426;2022-10-31T14:00:25;6.40;;;2.70;;
67187;SDS011;54117;53.532;49.426;2022-10-31T14:03:00;8.55;;;2.72;;
67187;SDS011;54117;53.532;49.426;2022-10-31T14:05:34;10.20;;;6.45;;
67187;SDS011;54117;53.532;49.426;2022-10-31T14:08:20;5.97;;;1.80;;
67187;SDS011;54117;53.532;49.426;2022-10-31T14:10:50;4.82;;;1.85;;
67187;SDS011;54117;53.532;49.426;2022-10-31T14:13:28;7.40;;;1.92;;
67187;SDS011;54117;53.532;49.426;2022-10-31T14:16:16;4.28;;;2.70;;
67187;SDS011;54117;53.532;49.426;2022-10-31T14:18:48;9.60;;;3.20;;
